sensor_id;sensor_type;location;lat;lon;timestamp;pressure;altitude;pressure_sealevel;temperature;humidity
47430;BME280;33181;49.246;7.372;2023-08-12T00:01:26;99029.75;;;22.07;87.13
47430;BME280;33181;49.246;7.372;2023-08-12T00:03:51;99020.31;;;22.11;86.84
47430;BME280;33181;49.246;7.372;2023-08-12T00:06:17;99017.25;;;22.14;86.49
47430;BME280;33181;49.246;7.372;2023-08-12T00:08:43;99019.75;;;22.16;86.09
47430;BME280;33181;49.246;7.372;2023-08-12T00:11:09;99027.16;;;22.14;85.60
47430;BME280;33181;49.246;7.372;2023-08-12T00:13:35;99014.69;;;22.06;85.83
47430;BME280;33181;49.246;7.372;2023-08-12T00:16:00;99015.34;;;22.08;85.96
47430;BME280;33181;49.246;7.372;2023-08-12T00:18:26;99021.16;;;22.12;85.78
47430;BME280;33181;49.246;7.372;2023-08-12T00:20:52;99024.25;;;22.15;85.82
47430;BME280;33181;49.246;7.372;2023-08-12T00:23:18;99019.59;;;22.17;85.80
47430;BME280;33181;49.246;7.372;2023-08-12T00:25:44;99023.53;;;22.21;85.31
47430;BME280;33181;49.246;7.372;2023-08-12T00:28:09;99032.59;;;22.20;85.35
47430;BME280;33181;49.246;7.372;2023-08-12T00:30:35;99037.84;;;22.14;85.50
47430;BME280;33181;49.246;7.372;2023-08-12T00:33:01;99043.84;;;22.16;85.61
47430;BME280;33181;49.246;7.372;2023-08-12T00:35:27;99056.25;;;22.02;86.30
47430;BME280;33181;49.246;7.372;2023-08-12T00:37:53;99064.19;;;21.95;86.96
47430;BME280;33181;49.246;7.372;2023-08-12T00:40:19;99075.66;;;21.89;88.14
47430;BME280;33181;49.246;7.372;2023-08-12T00:42:44;99080.19;;;21.89;88.84
47430;BME280;33181;49.246;7.372;2023-08-12T00:45:12;99078.25;;;21.83;89.40
47430;BME280;33181;49.246;7.372;2023-08-12T00:47:39;99080.78;;;21.69;90.70
47430;BME280;33181;49.246;7.372;2023-08-12T00:50:09;99088.59;;;21.71;90.33
47430;BME280;33181;49.246;7.372;2023-08-12T00:52:38;99083.53;;;21.61;91.45
47430;BME280;33181;49.246;7.372;2023-08-12T00:55:04;99098.84;;;21.67;91.57
47430;BME280;33181;49.246;7.372;2023-08-12T00:57:30;99095.16;;;21.68;91.30
47430;BME280;33181;49.246;7.372;2023-08-12T00:59:56;99094.06;;;21.63;91.42
47430;BME280;33181;49.246;7.372;2023-08-12T01:02:22;99089.28;;;21.58;90.93
47430;BME280;33181;49.246;7.372;2023-08-12T01:04:48;99082.53;;;21.62;90.86
47430;BME280;33181;49.246;7.372;2023-08-12T01:07:14;99082.44;;;21.56;91.29
47430;BME280;33181;49.246;7.372;2023-08-12T01:09:39;99088.00;;;21.54;91.13
47430;BME280;33181;49.246;7.372;2023-08-12T01:12:12;99088.00;;;21.54;91.32
47430;BME280;33181;49.246;7.372;2023-08-12T01:15:07;99081.34;;;21.50;91.71
47430;BME280;33181;49.246;7.372;2023-08-12T01:17:33;99094.69;;;21.65;91.13
47430;BME280;33181;49.246;7.372;2023-08-12T01:20:02;99090.25;;;21.72;90.63
47430;BME280;33181;49.246;7.372;2023-08-12T01:22:37;99085.94;;;21.71;91.33
47430;BME280;33181;49.246;7.372;2023-08-12T01:25:06;99080.41;;;21.72;91.74
47430;BME280;33181;49.246;7.372;2023-08-12T01:27:36;99083.84;;;21.66;93.07
47430;BME280;33181;49.246;7.372;2023-08-12T01:30:03;99086.69;;;21.65;95.52
47430;BME280;33181;49.246;7.372;2023-08-12T01:33:09;99085.19;;;21.62;96.98
47430;BME280;33181;49.246;7.372;2023-08-12T01:35:43;99086.50;;;21.66;98.29
47430;BME280;33181;49.246;7.372;2023-08-12T01:38:12;99079.56;;;21.72;99.53
47430;BME280;33181;49.246;7.372;2023-08-12T01:40:39;99087.50;;;21.65;100.00
47430;BME280;33181;49.246;7.372;2023-08-12T01:43:06;99078.66;;;21.65;100.00
47430;BME280;33181;49.246;7.372;2023-08-12T01:45:33;99081.16;;;21.66;100.00
47430;BME280;33181;49.246;7.372;2023-08-12T01:48:01;99083.53;;;21.61;100.00
47430;BME280;33181;49.246;7.372;2023-08-12T01:50:28;99087.63;;;21.57;100.00
47430;BME280;33181;49.246;7.372;2023-08-12T01:52:54;99080.34;;;21.51;100.00
47430;BME280;33181;49.246;7.372;2023-08-12T01:55:19;99067.59;;;21.53;100.00
47430;BME280;33181;49.246;7.372;2023-08-12T01:57:45;99060.50;;;21.60;100.00
47430;BME280;33181;49.246;7.372;2023-08-12T02:00:11;99049.44;;;21.63;100.00
47430;BME280;33181;49.246;7.372;2023-08-12T02:02:37;99047.00;;;21.68;100.00
47430;BME280;33181;49.246;7.372;2023-08-12T02:05:03;99026.94;;;21.72;100.00
47430;BME280;33181;49.246;7.372;2023-08-12T02:07:29;99015.84;;;21.75;100.00
47430;BME280;33181;49.246;7.372;2023-08-12T02:09:55;99015.19;;;21.73;100.00
47430;BME280;33181;49.246;7.372;2023-08-12T02:12:20;99012.97;;;21.77;100.00
47430;BME280;33181;49.246;7.372;2023-08-12T02:14:46;99016.38;;;21.86;100.00
47430;BME280;33181;49.246;7.372;2023-08-12T02:17:12;99018.84;;;21.87;100.00
47430;BME280;33181;49.246;7.372;2023-08-12T02:19:37;99016.22;;;21.94;100.00
47430;BME280;33181;49.246;7.372;2023-08-12T02:22:04;99007.59;;;21.92;100.00
47430;BME280;33181;49.246;7.372;2023-08-12T02:24:30;99009.06;;;21.94;100.00
47430;BME280;33181;49.246;7.372;2023-08-12T02:26:56;99004.16;;;21.98;100.00
47430;BME280;33181;49.246;7.372;2023-08-12T02:29:22;98998.34;;;21.94;100.00
47430;BME280;33181;49.246;7.372;2023-08-12T02:31:48;98996.28;;;21.96;100.00
47430;BME280;33181;49.246;7.372;2023-08-12T02:34:13;98990.44;;;21.86;100.00
47430;BME280;33181;49.246;7.372;2023-08-12T02:36:39;98998.53;;;21.93;100.00
47430;BME280;33181;49.246;7.372;2023-08-12T02:39:05;98992.81;;;21.96;100.00
47430;BME280;33181;49.246;7.372;2023-08-12T02:41:31;98992.25;;;22.01;100.00
47430;BME280;33181;49.246;7.372;2023-08-12T02:43:57;98993.06;;;22.01;100.00
47430;BME280;33181;49.246;7.372;2023-08-12T02:46:22;98990.84;;;22.05;100.00
47430;BME280;33181;49.246;7.372;2023-08-12T02:48:50;99001.72;;;22.03;100.00
47430;BME280;33181;49.246;7.372;2023-08-12T02:51:16;98997.59;;;22.01;100.00
47430;BME280;33181;49.246;7.372;2023-08-12T02:53:42;99005.41;;;22.02;100.00
47430;BME280;33181;49.246;7.372;2023-08-12T02:56:08;99003.56;;;22.03;100.00
47430;BME280;33181;49.246;7.372;2023-08-12T02:58:33;98995.91;;;21.99;100.00
47430;BME280;33181;49.246;7.372;2023-08-12T03:00:59;98989.94;;;21.97;100.00
47430;BME280;33181;49.246;7.372;2023-08-12T03:03:25;98999.63;;;21.98;100.00
47430;BME280;33181;49.246;7.372;2023-08-12T03:05:51;98998.97;;;21.96;100.00
47430;BME280;33181;49.246;7.372;2023-08-12T03:08:17;98996.13;;;21.98;100.00
47430;BME280;33181;49.246;7.372;2023-08-12T03:10:45;98996.28;;;21.96;100.00
47430;BME280;33181;49.246;7.372;2023-08-12T03:13:11;98990.78;;;21.98;100.00
47430;BME280;33181;49.246;7.372;2023-08-12T03:15:40;98980.91;;;21.98;100.00
47430;BME280;33181;49.246;7.372;2023-08-12T03:18:05;98984.78;;;21.96;100.00
47430;BME280;33181;49.246;7.372;2023-08-12T03:20:31;98981.31;;;21.81;100.00
47430;BME280;33181;49.246;7.372;2023-08-12T03:22:57;98973.81;;;21.69;100.00
47430;BME280;33181;49.246;7.372;2023-08-12T03:25:23;98981.00;;;21.69;100.00
47430;BME280;33181;49.246;7.372;2023-08-12T03:27:48;98981.00;;;21.69;100.00
47430;BME280;33181;49.246;7.372;2023-08-12T03:30:14;98975.63;;;21.69;100.00
47430;BME280;33181;49.246;7.372;2023-08-12T03:32:40;98969.31;;;21.70;100.00
47430;BME280;33181;49.246;7.372;2023-08-12T03:35:06;98970.78;;;21.72;100.00
47430;BME280;33181;49.246;7.372;2023-08-12T03:37:32;98965.03;;;21.75;100.00
47430;BME280;33181;49.246;7.372;2023-08-12T03:39:57;98969.53;;;21.75;100.00
47430;BME280;33181;49.246;7.372;2023-08-12T03:42:23;98963.81;;;21.78;100.00
47430;BME280;33181;49.246;7.372;2023-08-12T03:44:49;98969.81;;;21.80;100.00
47430;BME280;33181;49.246;7.372;2023-08-12T03:47:15;98964.47;;;21.80;100.00
47430;BME280;33181;49.246;7.372;2023-08-12T03:49:40;98954.13;;;21.77;100.00
47430;BME280;33181;49.246;7.372;2023-08-12T03:52:06;98966.03;;;21.74;100.00
47430;BME280;33181;49.246;7.372;2023-08-12T03:54:33;98967.88;;;21.74;100.00
47430;BME280;33181;49.246;7.372;2023-08-12T03:56:59;98965.16;;;21.67;100.00
47430;BME280;33181;49.246;7.372;2023-08-12T03:59:26;98960.66;;;21.53;100.00
47430;BME280;33181;49.246;7.372;2023-08-12T04:01:51;98952.13;;;21.43;100.00
47430;BME280;33181;49.246;7.372;2023-08-12T04:04:17;98955.38;;;21.38;100.00
47430;BME280;33181;49.246;7.372;2023-08-12T04:06:43;98956.59;;;21.36;100.00
47430;BME280;33181;49.246;7.372;2023-08-12T04:09:09;98956.59;;;21.36;100.00
47430;BME280;33181;49.246;7.372;2023-08-12T04:11:35;98956.38;;;21.37;100.00
47430;BME280;33181;49.246;7.372;2023-08-12T04:14:00;98952.50;;;21.40;100.00
47430;BME280;33181;49.246;7.372;2023-08-12T04:16:26;98949.84;;;21.40;100.00
47430;BME280;33181;49.246;7.372;2023-08-12T04:18:52;98956.00;;;21.40;100.00
47430;BME280;33181;49.246;7.372;2023-08-12T04:21:17;98954.19;;;21.41;100.00
47430;BME280;33181;49.246;7.372;2023-08-12T04:23:43;98961.56;;;21.39;100.00
47430;BME280;33181;49.246;7.372;2023-08-12T04:26:09;98957.41;;;21.36;100.00
47430;BME280;33181;49.246;7.372;2023-08-12T04:28:34;98959.06;;;21.37;100.00
47430;BME280;33181;49.246;7.372;2023-08-12T04:31:00;98956.38;;;21.37;100.00
47430;BME280;33181;49.246;7.372;2023-08-12T04:33:26;98960.25;;;21.35;100.00
47430;BME280;33181;49.246;7.372;2023-08-12T04:35:53;98958.56;;;21.34;100.00
47430;BME280;33181;49.246;7.372;2023-08-12T04:38:19;98949.06;;;21.31;100.00
47430;BME280;33181;49.246;7.372;2023-08-12T04:40:45;98943.28;;;21.27;100.00
47430;BME280;33181;49.246;7.372;2023-08-12T04:43:11;98945.78;;;21.29;100.00
47430;BME280;33181;49.246;7.372;2023-08-12T04:45:38;98952.41;;;21.33;100.00
47430;BME280;33181;49.246;7.372;2023-08-12T04:48:05;98948.09;;;21.32;100.00
47430;BME280;33181;49.246;7.372;2023-08-12T04:50:31;98941.25;;;21.29;100.00
47430;BME280;33181;49.246;7.372;2023-08-12T04:53:00;98952.41;;;21.33;100.00
47430;BME280;33181;49.246;7.372;2023-08-12T04:55:25;98951.22;;;21.36;100.00
47430;BME280;33181;49.246;7.372;2023-08-12T04:57:51;98951.59;;;21.47;100.00
47430;BME280;33181;49.246;7.372;2023-08-12T05:00:18;98939.88;;;21.70;100.00
47430;BME280;33181;49.246;7.372;2023-08-12T05:02:44;98933.81;;;22.04;100.00
47430;BME280;33181;49.246;7.372;2023-08-12T05:05:10;98926.19;;;22.23;100.00
47430;BME280;33181;49.246;7.372;2023-08-12T05:07:35;98918.41;;;22.34;100.00
47430;BME280;33181;49.246;7.372;2023-08-12T05:10:02;98920.34;;;22.47;100.00
47430;BME280;33181;49.246;7.372;2023-08-12T05:12:28;98915.53;;;22.64;100.00
47430;BME280;33181;49.246;7.372;2023-08-12T05:14:53;98919.88;;;22.65;99.72
47430;BME280;33181;49.246;7.372;2023-08-12T05:17:19;98916.16;;;22.66;98.60
47430;BME280;33181;49.246;7.372;2023-08-12T05:19:45;98926.47;;;22.69;98.36
47430;BME280;33181;49.246;7.372;2023-08-12T05:22:11;98932.03;;;22.67;97.95
47430;BME280;33181;49.246;7.372;2023-08-12T05:24:37;98932.22;;;22.66;97.92
47430;BME280;33181;49.246;7.372;2023-08-12T05:27:03;98927.25;;;22.63;97.69
47430;BME280;33181;49.246;7.372;2023-08-12T05:29:30;98930.56;;;22.65;97.55
47430;BME280;33181;49.246;7.372;2023-08-12T05:31:56;98935.50;;;22.61;97.72
47430;BME280;33181;49.246;7.372;2023-08-12T05:34:22;98929.94;;;22.63;97.76
47430;BME280;33181;49.246;7.372;2023-08-12T05:36:48;98916.94;;;22.60;97.44
47430;BME280;33181;49.246;7.372;2023-08-12T05:39:14;98926.00;;;22.59;97.51
47430;BME280;33181;49.246;7.372;2023-08-12T05:41:41;98922.28;;;22.60;97.80
47430;BME280;33181;49.246;7.372;2023-08-12T05:44:07;98927.84;;;22.58;98.43
47430;BME280;33181;49.246;7.372;2023-08-12T05:46:33;98927.81;;;22.52;98.41
47430;BME280;33181;49.246;7.372;2023-08-12T05:49:01;98931.97;;;22.54;98.69
47430;BME280;33181;49.246;7.372;2023-08-12T05:51:26;98929.44;;;22.46;98.84
47430;BME280;33181;49.246;7.372;2023-08-12T05:53:52;98936.00;;;22.43;99.09
47430;BME280;33181;49.246;7.372;2023-08-12T05:56:18;98944.41;;;22.40;99.71
47430;BME280;33181;49.246;7.372;2023-08-12T05:58:44;98944.03;;;22.43;99.98
47430;BME280;33181;49.246;7.372;2023-08-12T06:01:10;98930.47;;;22.45;100.00
47430;BME280;33181;49.246;7.372;2023-08-12T06:03:36;98936.63;;;22.46;99.92
47430;BME280;33181;49.246;7.372;2023-08-12T06:06:03;98930.72;;;22.57;99.69
47430;BME280;33181;49.246;7.372;2023-08-12T06:08:28;98934.06;;;22.65;100.00
47430;BME280;33181;49.246;7.372;2023-08-12T06:10:54;98932.09;;;22.81;100.00
47430;BME280;33181;49.246;7.372;2023-08-12T06:13:20;98932.19;;;22.94;99.15
47430;BME280;33181;49.246;7.372;2023-08-12T06:15:45;98943.72;;;22.95;98.28
47430;BME280;33181;49.246;7.372;2023-08-12T06:18:11;98938.72;;;22.85;97.60
47430;BME280;33181;49.246;7.372;2023-08-12T06:20:37;98939.31;;;22.80;97.25
47430;BME280;33181;49.246;7.372;2023-08-12T06:23:03;98935.78;;;22.73;97.64
47430;BME280;33181;49.246;7.372;2023-08-12T06:25:29;98954.25;;;22.61;98.25
47430;BME280;33181;49.246;7.372;2023-08-12T06:27:55;98957.44;;;22.50;99.21
47430;BME280;33181;49.246;7.372;2023-08-12T06:30:20;98962.81;;;22.50;99.71
47430;BME280;33181;49.246;7.372;2023-08-12T06:32:46;98953.13;;;22.49;100.00
47430;BME280;33181;49.246;7.372;2023-08-12T06:35:12;98949.75;;;22.40;100.00
47430;BME280;33181;49.246;7.372;2023-08-12T06:37:40;98957.19;;;22.38;100.00
47430;BME280;33181;49.246;7.372;2023-08-12T06:40:06;98951.47;;;22.48;100.00
47430;BME280;33181;49.246;7.372;2023-08-12T06:42:32;98948.31;;;22.73;100.00
47430;BME280;33181;49.246;7.372;2023-08-12T06:44:59;98960.88;;;23.00;100.00
47430;BME280;33181;49.246;7.372;2023-08-12T06:47:25;98953.16;;;23.25;100.00
47430;BME280;33181;49.246;7.372;2023-08-12T06:49:53;98943.13;;;23.47;98.60
47430;BME280;33181;49.246;7.372;2023-08-12T06:52:19;98953.03;;;23.60;98.65
47430;BME280;33181;49.246;7.372;2023-08-12T06:54:44;98950.66;;;23.92;98.91
47430;BME280;33181;49.246;7.372;2023-08-12T06:57:10;98947.59;;;24.28;96.38
47430;BME280;33181;49.246;7.372;2023-08-12T06:59:40;98937.88;;;24.54;91.99
47430;BME280;33181;49.246;7.372;2023-08-12T07:02:06;98938.63;;;24.81;89.77
47430;BME280;33181;49.246;7.372;2023-08-12T07:04:32;98953.66;;;25.02;86.79
47430;BME280;33181;49.246;7.372;2023-08-12T07:06:59;98954.28;;;25.04;86.79
47430;BME280;33181;49.246;7.372;2023-08-12T07:09:24;98961.69;;;25.08;85.98
47430;BME280;33181;49.246;7.372;2023-08-12T07:11:50;98961.75;;;24.95;86.29
47430;BME280;33181;49.246;7.372;2023-08-12T07:14:16;98966.53;;;24.86;86.74
47430;BME280;33181;49.246;7.372;2023-08-12T07:16:42;98973.97;;;24.78;87.33
47430;BME280;33181;49.246;7.372;2023-08-12T07:19:08;98981.22;;;24.77;87.86
47430;BME280;33181;49.246;7.372;2023-08-12T07:21:33;98981.88;;;24.66;88.37
47430;BME280;33181;49.246;7.372;2023-08-12T07:23:59;98981.44;;;24.69;88.38
47430;BME280;33181;49.246;7.372;2023-08-12T07:26:25;98990.34;;;24.56;89.14
47430;BME280;33181;49.246;7.372;2023-08-12T07:28:50;98982.72;;;24.46;88.78
47430;BME280;33181;49.246;7.372;2023-08-12T07:31:17;98975.47;;;24.40;88.78
47430;BME280;33181;49.246;7.372;2023-08-12T07:33:43;98975.09;;;24.43;89.70
47430;BME280;33181;49.246;7.372;2023-08-12T07:36:09;98965.16;;;24.44;88.62
47430;BME280;33181;49.246;7.372;2023-08-12T07:38:35;98958.72;;;24.51;88.68
47430;BME280;33181;49.246;7.372;2023-08-12T07:41:04;98955.59;;;24.68;87.86
47430;BME280;33181;49.246;7.372;2023-08-12T07:43:29;98960.34;;;24.79;86.90
47430;BME280;33181;49.246;7.372;2023-08-12T07:45:55;98962.22;;;24.79;86.10
47430;BME280;33181;49.246;7.372;2023-08-12T07:48:21;98955.00;;;24.72;86.86
47430;BME280;33181;49.246;7.372;2023-08-12T07:50:47;98959.69;;;24.84;86.51
47430;BME280;33181;49.246;7.372;2023-08-12T07:53:16;98973.28;;;25.02;86.11
47430;BME280;33181;49.246;7.372;2023-08-12T07:55:42;98956.13;;;25.10;85.62
47430;BME280;33181;49.246;7.372;2023-08-12T07:58:08;98940.41;;;25.13;84.08
47430;BME280;33181;49.246;7.372;2023-08-12T08:00:34;98943.69;;;25.22;84.02
47430;BME280;33181;49.246;7.372;2023-08-12T08:03:00;98941.22;;;25.20;83.69
47430;BME280;33181;49.246;7.372;2023-08-12T08:05:26;98943.59;;;24.77;86.27
47430;BME280;33181;49.246;7.372;2023-08-12T08:07:51;98944.22;;;24.79;86.47
47430;BME280;33181;49.246;7.372;2023-08-12T08:10:17;98949.31;;;25.01;86.80
47430;BME280;33181;49.246;7.372;2023-08-12T08:12:43;98943.34;;;25.43;84.77
47430;BME280;33181;49.246;7.372;2023-08-12T08:15:09;98917.66;;;25.54;81.29
47430;BME280;33181;49.246;7.372;2023-08-12T08:17:35;98924.81;;;25.67;78.88
47430;BME280;33181;49.246;7.372;2023-08-12T08:20:01;98926.97;;;26.15;78.60
47430;BME280;33181;49.246;7.372;2023-08-12T08:22:26;98937.66;;;26.47;75.01
47430;BME280;33181;49.246;7.372;2023-08-12T08:24:52;98930.72;;;26.57;74.35
47430;BME280;33181;49.246;7.372;2023-08-12T08:27:18;98923.03;;;26.98;74.52
47430;BME280;33181;49.246;7.372;2023-08-12T08:29:44;98927.63;;;27.16;73.24
47430;BME280;33181;49.246;7.372;2023-08-12T08:32:11;98932.34;;;27.02;73.50
47430;BME280;33181;49.246;7.372;2023-08-12T08:34:36;98932.09;;;27.40;72.74
47430;BME280;33181;49.246;7.372;2023-08-12T08:37:02;98934.59;;;27.84;71.10
47430;BME280;33181;49.246;7.372;2023-08-12T08:39:28;98939.25;;;28.18;69.45
47430;BME280;33181;49.246;7.372;2023-08-12T08:41:56;98933.41;;;28.57;69.51
47430;BME280;33181;49.246;7.372;2023-08-12T08:44:22;98946.38;;;28.95;68.15
47430;BME280;33181;49.246;7.372;2023-08-12T08:46:53;98948.50;;;29.05;65.69
47430;BME280;33181;49.246;7.372;2023-08-12T08:49:22;98956.03;;;28.91;65.46
47430;BME280;33181;49.246;7.372;2023-08-12T08:51:48;98963.81;;;28.64;66.92
47430;BME280;33181;49.246;7.372;2023-08-12T08:54:15;98962.25;;;28.21;67.43
47430;BME280;33181;49.246;7.372;2023-08-12T08:56:41;98960.44;;;27.91;69.54
47430;BME280;33181;49.246;7.372;2023-08-12T08:59:08;98969.03;;;27.70;70.70
47430;BME280;33181;49.246;7.372;2023-08-12T09:01:36;98975.56;;;27.32;71.65
47430;BME280;33181;49.246;7.372;2023-08-12T09:04:03;98981.44;;;27.04;72.51
47430;BME280;33181;49.246;7.372;2023-08-12T09:06:29;98995.97;;;26.85;72.90
47430;BME280;33181;49.246;7.372;2023-08-12T09:08:56;98992.38;;;26.72;72.71
47430;BME280;33181;49.246;7.372;2023-08-12T09:11:23;98993.44;;;26.71;73.13
47430;BME280;33181;49.246;7.372;2023-08-12T09:13:49;98997.75;;;26.47;72.29
47430;BME280;33181;49.246;7.372;2023-08-12T09:16:15;99006.13;;;26.14;74.28
47430;BME280;33181;49.246;7.372;2023-08-12T09:18:45;99003.91;;;26.04;75.26
47430;BME280;33181;49.246;7.372;2023-08-12T09:21:11;98998.91;;;26.08;75.13
47430;BME280;33181;49.246;7.372;2023-08-12T09:23:41;98983.34;;;26.10;76.06
47430;BME280;33181;49.246;7.372;2023-08-12T09:26:19;98989.63;;;25.97;74.79
47430;BME280;33181;49.246;7.372;2023-08-12T09:28:47;98987.13;;;26.02;74.54
47430;BME280;33181;49.246;7.372;2023-08-12T09:31:28;98993.19;;;25.98;74.13
47430;BME280;33181;49.246;7.372;2023-08-12T09:34:07;98999.22;;;25.93;73.05
47430;BME280;33181;49.246;7.372;2023-08-12T09:36:34;98998.44;;;25.86;73.75
47430;BME280;33181;49.246;7.372;2023-08-12T09:39:00;98993.88;;;25.86;74.19
47430;BME280;33181;49.246;7.372;2023-08-12T09:41:29;98999.06;;;25.75;74.14
47430;BME280;33181;49.246;7.372;2023-08-12T09:43:56;98997.63;;;25.72;75.10
47430;BME280;33181;49.246;7.372;2023-08-12T09:46:25;99005.97;;;25.64;75.79
47430;BME280;33181;49.246;7.372;2023-08-12T09:48:52;98998.75;;;25.58;77.21
47430;BME280;33181;49.246;7.372;2023-08-12T09:51:21;99001.44;;;25.58;77.85
47430;BME280;33181;49.246;7.372;2023-08-12T09:53:48;99004.56;;;25.55;77.53
47430;BME280;33181;49.246;7.372;2023-08-12T09:56:18;99004.63;;;25.41;77.82
47430;BME280;33181;49.246;7.372;2023-08-12T09:58:48;99010.34;;;25.00;79.98
47430;BME280;33181;49.246;7.372;2023-08-12T10:01:19;99013.00;;;24.93;80.75
47430;BME280;33181;49.246;7.372;2023-08-12T10:03:49;98999.41;;;24.88;81.81
47430;BME280;33181;49.246;7.372;2023-08-12T10:06:19;99008.28;;;24.82;82.46
47430;BME280;33181;49.246;7.372;2023-08-12T10:08:46;99020.28;;;24.73;82.69
47430;BME280;33181;49.246;7.372;2023-08-12T10:11:14;99021.53;;;24.70;82.76
47430;BME280;33181;49.246;7.372;2023-08-12T10:13:40;99025.28;;;24.63;82.59
47430;BME280;33181;49.246;7.372;2023-08-12T10:16:08;99023.81;;;24.54;83.29
47430;BME280;33181;49.246;7.372;2023-08-12T10:18:38;99025.25;;;24.43;84.13
47430;BME280;33181;49.246;7.372;2023-08-12T10:21:08;99021.91;;;24.21;84.74
47430;BME280;33181;49.246;7.372;2023-08-12T10:23:34;99018.63;;;24.19;85.63
47430;BME280;33181;49.246;7.372;2023-08-12T10:26:02;99008.94;;;24.24;87.65
47430;BME280;33181;49.246;7.372;2023-08-12T10:28:31;99003.13;;;24.21;87.93
47430;BME280;33181;49.246;7.372;2023-08-12T10:31:04;99000.88;;;24.31;86.84
47430;BME280;33181;49.246;7.372;2023-08-12T10:33:34;98999.00;;;24.38;86.02
47430;BME280;33181;49.246;7.372;2023-08-12T10:36:00;99002.34;;;24.47;86.15
47430;BME280;33181;49.246;7.372;2023-08-12T10:38:26;98991.38;;;24.55;85.60
47430;BME280;33181;49.246;7.372;2023-08-12T10:40:52;98997.59;;;24.62;85.99
47430;BME280;33181;49.246;7.372;2023-08-12T10:43:18;98985.81;;;24.57;85.14
47430;BME280;33181;49.246;7.372;2023-08-12T10:45:51;98968.44;;;24.59;87.11
47430;BME280;33181;49.246;7.372;2023-08-12T10:48:21;98953.91;;;24.80;87.13
47430;BME280;33181;49.246;7.372;2023-08-12T10:50:51;98918.94;;;24.93;86.36
47430;BME280;33181;49.246;7.372;2023-08-12T10:53:29;98929.16;;;25.30;84.84
47430;BME280;33181;49.246;7.372;2023-08-12T10:56:03;98914.34;;;25.52;79.00
47430;BME280;33181;49.246;7.372;2023-08-12T10:58:44;98933.59;;;25.87;77.41
47430;BME280;33181;49.246;7.372;2023-08-12T11:01:16;98951.56;;;26.44;74.97
47430;BME280;33181;49.246;7.372;2023-08-12T11:03:45;98957.25;;;26.79;70.47
47430;BME280;33181;49.246;7.372;2023-08-12T11:06:12;98953.47;;;27.05;71.42
47430;BME280;33181;49.246;7.372;2023-08-12T11:08:52;98955.09;;;27.06;68.40
47430;BME280;33181;49.246;7.372;2023-08-12T11:11:25;98954.66;;;26.91;66.86
47430;BME280;33181;49.246;7.372;2023-08-12T11:13:56;98947.69;;;26.83;67.56
47430;BME280;33181;49.246;7.372;2023-08-12T11:16:36;98955.63;;;26.78;66.22
47430;BME280;33181;49.246;7.372;2023-08-12T11:19:03;98939.06;;;26.56;68.74
47430;BME280;33181;49.246;7.372;2023-08-12T11:21:30;98930.53;;;26.96;68.21
47430;BME280;33181;49.246;7.372;2023-08-12T11:23:56;98920.69;;;27.38;67.08
47430;BME280;33181;49.246;7.372;2023-08-12T11:26:24;98913.47;;;27.50;65.65
47430;BME280;33181;49.246;7.372;2023-08-12T11:28:50;98918.81;;;27.39;66.02
47430;BME280;33181;49.246;7.372;2023-08-12T11:31:16;98920.88;;;27.67;65.09
47430;BME280;33181;49.246;7.372;2023-08-12T11:33:45;98918.28;;;28.02;65.14
47430;BME280;33181;49.246;7.372;2023-08-12T11:36:10;98925.47;;;28.20;65.66
47430;BME280;33181;49.246;7.372;2023-08-12T11:38:37;98929.34;;;28.24;63.26
47430;BME280;33181;49.246;7.372;2023-08-12T11:41:03;98932.44;;;28.51;63.64
47430;BME280;33181;49.246;7.372;2023-08-12T11:43:32;98931.94;;;28.90;62.88
47430;BME280;33181;49.246;7.372;2023-08-12T11:45:59;98929.06;;;29.20;62.02
47430;BME280;33181;49.246;7.372;2023-08-12T11:48:27;98925.47;;;29.60;60.47
47430;BME280;33181;49.246;7.372;2023-08-12T11:50:53;98929.22;;;29.70;59.11
47430;BME280;33181;49.246;7.372;2023-08-12T11:53:20;98935.88;;;29.79;57.41
47430;BME280;33181;49.246;7.372;2023-08-12T11:55:46;98924.97;;;29.91;59.95
47430;BME280;33181;49.246;7.372;2023-08-12T11:58:14;98924.81;;;29.52;59.55
47430;BME280;33181;49.246;7.372;2023-08-12T12:00:46;98932.75;;;29.71;59.80
47430;BME280;33181;49.246;7.372;2023-08-12T12:03:12;98921.72;;;28.33;61.47
47430;BME280;33181;49.246;7.372;2023-08-12T12:05:37;98927.38;;;28.19;63.27
47430;BME280;33181;49.246;7.372;2023-08-12T12:08:05;98938.09;;;27.54;65.77
47430;BME280;33181;49.246;7.372;2023-08-12T12:10:34;98932.97;;;27.64;66.48
47430;BME280;33181;49.246;7.372;2023-08-12T12:13:03;98935.00;;;27.39;67.08
47430;BME280;33181;49.246;7.372;2023-08-12T12:15:31;98934.94;;;27.09;67.87
47430;BME280;33181;49.246;7.372;2023-08-12T12:17:58;98931.66;;;26.88;69.71
47430;BME280;33181;49.246;7.372;2023-08-12T12:20:24;98933.00;;;26.79;69.28
47430;BME280;33181;49.246;7.372;2023-08-12T12:22:52;98926.03;;;26.71;68.84
47430;BME280;33181;49.246;7.372;2023-08-12T12:25:18;98921.09;;;26.87;70.50
47430;BME280;33181;49.246;7.372;2023-08-12T12:27:46;98913.59;;;27.07;69.00
47430;BME280;33181;49.246;7.372;2023-08-12T12:30:14;98907.81;;;27.03;70.67
47430;BME280;33181;49.246;7.372;2023-08-12T12:32:40;98914.41;;;27.08;69.76
47430;BME280;33181;49.246;7.372;2023-08-12T12:35:07;98921.69;;;27.07;69.80
47430;BME280;33181;49.246;7.372;2023-08-12T12:37:33;98922.97;;;26.68;69.12
47430;BME280;33181;49.246;7.372;2023-08-12T12:40:00;98932.78;;;26.80;70.52
47430;BME280;33181;49.246;7.372;2023-08-12T12:42:28;98925.22;;;26.89;67.10
47430;BME280;33181;49.246;7.372;2023-08-12T12:44:54;98929.75;;;27.07;67.77
47430;BME280;33181;49.246;7.372;2023-08-12T12:47:19;98928.06;;;27.31;67.55
47430;BME280;33181;49.246;7.372;2023-08-12T12:49:45;98936.72;;;27.63;66.53
47430;BME280;33181;49.246;7.372;2023-08-12T12:52:12;98946.59;;;27.69;64.85
47430;BME280;33181;49.246;7.372;2023-08-12T12:54:37;98946.25;;;27.66;64.86
47430;BME280;33181;49.246;7.372;2023-08-12T12:57:03;98950.69;;;27.60;64.74